Time;durP1;ratioP1;P1;durP2;ratioP2;P2;SDS_P1;SDS_P2;PMS_P1;PMS_P2;Temp;Humidity;BMP_temperature;BMP_pressure;BME280_temperature;BME280_humidity;BME280_pressure;Samples;Min_cycle;Max_cycle;Signal;HPM_P1;HPM_P2
2022/03/11 00:01:46;;;;;;;22.75;13.70;;;;;;;5.77;72.25;102158.00;10394717;28;20057;-64
2022/03/11 00:07:27;;;;;;;25.13;14.55;;;;;;;5.75;73.12;102154.56;10405431;28;20065;-66
2022/03/11 00:12:49;;;;;;;25.45;15.23;;;;;;;5.75;72.15;102144.22;10389189;28;20049;-64
2022/03/11 00:18:10;;;;;;;23.80;14.50;;;;;;;5.74;71.81;102145.09;10407790;28;20042;-64
2022/03/11 00:23:32;;;;;;;26.10;14.63;;;;;;;5.70;71.68;102146.03;10429378;28;20049;-63
2022/03/11 00:28:54;;;;;;;24.23;13.90;;;;;;;5.44;72.92;102142.38;10410008;28;20053;-66
2022/03/11 00:34:15;;;;;;;22.58;14.27;;;;;;;5.64;72.18;102143.63;10391874;28;20053;-63
2022/03/11 00:39:37;;;;;;;22.75;14.38;;;;;;;5.54;72.65;102143.88;10365741;28;20125;-66
2022/03/11 00:44:59;;;;;;;24.48;13.98;;;;;;;5.19;73.30;102146.38;10389141;28;20053;-65
2022/03/11 00:50:22;;;;;;;20.88;12.98;;;;;;;5.33;72.89;102150.38;10396258;28;20050;-65
2022/03/11 00:55:45;;;;;;;25.85;13.85;;;;;;;5.19;71.25;102157.56;10374504;28;20065;-65
2022/03/11 01:01:06;;;;;;;23.83;13.48;;;;;;;5.16;70.78;102157.63;10401648;28;20137;-65
2022/03/11 01:06:28;;;;;;;19.38;12.73;;;;;;;5.09;70.28;102148.31;10414538;28;20045;-65
2022/03/11 01:11:50;;;;;;;19.92;12.75;;;;;;;4.96;72.38;102144.28;10403971;28;20045;-65
2022/03/11 01:17:12;;;;;;;23.75;12.90;;;;;;;4.97;71.45;102148.56;10403941;28;20136;-65
2022/03/11 01:22:34;;;;;;;22.17;12.60;;;;;;;4.87;71.21;102144.47;10398684;28;20051;-65
2022/03/11 01:27:56;;;;;;;23.85;11.93;;;;;;;4.82;70.30;102141.13;10422020;28;20049;-65
2022/03/11 01:33:17;;;;;;;17.25;11.43;;;;;;;4.72;70.37;102142.19;10404852;28;20414;-66
2022/03/11 01:38:40;;;;;;;19.75;11.82;;;;;;;4.65;70.79;102137.19;10411163;28;20045;-65
2022/03/11 01:44:06;;;;;;;19.75;11.88;;;;;;;4.52;71.12;102134.84;10416316;28;20066;-65
2022/03/11 01:49:27;;;;;;;;;;;;;;;4.43;71.88;102129.88;10392360;28;20034;-65
2022/03/11 01:54:50;;;;;;;22.17;11.75;;;;;;;4.39;70.75;102126.50;10370841;28;19921;-65
2022/03/11 02:00:12;;;;;;;20.52;11.75;;;;;;;4.48;70.49;102122.91;10403531;28;20053;-65
2022/03/11 02:05:34;;;;;;;20.40;12.43;;;;;;;4.26;70.16;102121.59;10438891;28;20056;-65
2022/03/11 02:10:56;;;;;;;20.77;12.27;;;;;;;4.42;71.93;102123.88;10387485;28;20091;-65
2022/03/11 02:16:23;;;;;;;19.77;11.82;;;;;;;4.14;71.25;102125.25;10428959;28;20084;-65
2022/03/11 02:21:47;;;;;;;22.73;12.10;;;;;;;4.28;70.07;102109.50;10411166;28;20061;-65
2022/03/11 02:27:09;;;;;;;19.50;12.77;;;;;;;4.18;70.53;102103.66;10410558;28;20060;-65
2022/03/11 02:32:31;;;;;;;19.67;11.10;;;;;;;4.04;71.12;102107.38;10428581;28;20052;-65
2022/03/11 02:37:52;;;;;;;16.02;10.88;;;;;;;3.83;69.99;102094.84;10435688;28;20525;-64
2022/03/11 02:43:14;;;;;;;22.88;11.88;;;;;;;3.97;70.56;102087.72;10421223;28;20077;-64
2022/03/11 02:48:36;;;;;;;18.92;11.23;;;;;;;3.77;69.28;102079.50;10369786;28;20072;-65
2022/03/11 02:53:58;;;;;;;19.50;10.80;;;;;;;3.68;70.54;102068.47;10369991;28;20069;-64
2022/03/11 02:59:19;;;;;;;18.15;11.73;;;;;;;3.59;71.52;102061.75;10369101;28;20451;-65
2022/03/11 03:04:41;;;;;;;19.85;11.27;;;;;;;3.55;70.37;102065.25;10407762;28;20395;-65
2022/03/11 03:10:03;;;;;;;18.27;11.07;;;;;;;3.47;71.48;102053.34;10388667;28;20409;-65
2022/03/11 03:15:25;;;;;;;17.63;10.93;;;;;;;3.70;71.04;102039.22;10433659;28;20064;-65
2022/03/11 03:20:47;;;;;;;19.52;10.80;;;;;;;3.49;71.88;102043.88;10407999;28;20046;-65
2022/03/11 03:26:08;;;;;;;19.70;11.07;;;;;;;3.61;71.41;102035.94;10408205;28;20529;-65
2022/03/11 03:31:30;;;;;;;17.33;10.43;;;;;;;3.48;69.93;102032.72;10418113;28;20056;-65
2022/03/11 03:36:52;;;;;;;17.90;10.73;;;;;;;3.57;70.47;102030.00;10416837;28;20136;-65
2022/03/11 03:42:14;;;;;;;17.80;10.95;;;;;;;3.37;70.08;102016.56;10401509;28;20045;-65
2022/03/11 03:47:35;;;;;;;17.00;10.68;;;;;;;3.32;70.75;102028.69;10434628;28;20045;-65
2022/03/11 03:52:57;;;;;;;16.25;10.15;;;;;;;3.23;70.31;102026.25;10419590;28;20060;-65
2022/03/11 03:58:18;;;;;;;18.60;10.23;;;;;;;3.29;70.39;102033.91;10399152;28;20049;-65
2022/03/11 04:03:40;;;;;;;20.88;10.38;;;;;;;3.08;69.64;102023.91;10400672;28;20053;-64
2022/03/11 04:09:04;;;;;;;17.27;10.07;;;;;;;2.95;69.26;102034.44;10406309;28;20421;-65
2022/03/11 04:14:27;;;;;;;20.58;10.60;;;;;;;3.13;70.90;102032.44;10414115;28;20060;-65
2022/03/11 04:19:48;;;;;;;17.92;10.15;;;;;;;2.94;69.54;102025.84;10404827;28;20192;-64
2022/03/11 04:25:12;;;;;;;16.88;9.73;;;;;;;3.01;70.06;102006.00;10407303;28;20658;-65
2022/03/11 04:30:33;;;;;;;18.48;10.18;;;;;;;2.92;70.03;102006.97;10368788;28;20565;-64
2022/03/11 04:35:55;;;;;;;14.73;9.90;;;;;;;2.78;70.33;102007.19;10432746;28;20100;-64
2022/03/11 04:41:17;;;;;;;17.92;9.55;;;;;;;2.79;69.64;102003.75;10406430;28;20573;-65
2022/03/11 04:46:39;;;;;;;15.55;8.93;;;;;;;2.62;69.77;102000.59;10391725;28;20486;-65
2022/03/11 04:52:00;;;;;;;16.30;9.52;;;;;;;2.47;70.70;102003.38;10407090;28;20056;-65
2022/03/11 04:57:22;;;;;;;16.00;9.10;;;;;;;2.69;71.29;102002.19;10392156;28;20415;-65
2022/03/11 05:02:47;;;;;;;16.70;9.38;;;;;;;2.60;70.89;101994.59;10406925;28;20084;-65
2022/03/11 05:08:08;;;;;;;19.70;9.40;;;;;;;2.52;70.79;101997.28;10365840;28;20054;-65
2022/03/11 05:13:30;;;;;;;18.10;9.10;;;;;;;2.60;69.38;102010.06;10392144;28;20129;-65
2022/03/11 05:18:53;;;;;;;14.32;8.73;;;;;;;2.45;69.36;102012.81;10370389;28;20130;-65
2022/03/11 05:24:15;;;;;;;23.17;9.32;;;;;;;2.32;70.49;102003.56;10404899;28;20049;-64
2022/03/11 05:29:37;;;;;;;15.50;8.48;;;;;;;2.31;70.86;102010.41;10409116;28;20526;-64
2022/03/11 05:34:59;;;;;;;16.35;8.65;;;;;;;2.30;70.18;102008.69;10450761;28;20390;-65
2022/03/11 05:40:20;;;;;;;17.83;8.77;;;;;;;2.30;70.19;102007.88;10415730;28;20048;-64
2022/03/11 05:45:42;;;;;;;16.17;8.60;;;;;;;2.16;70.30;101999.47;10410966;28;20037;-65
2022/03/11 05:51:04;;;;;;;15.60;9.07;;;;;;;2.29;71.26;101993.31;10400930;28;20140;-64
2022/03/11 05:56:26;;;;;;;17.15;8.60;;;;;;;2.20;70.83;101983.97;10392437;28;20145;-65
2022/03/11 06:01:48;;;;;;;14.45;8.85;;;;;;;2.22;70.85;101991.66;10371984;28;20053;-64
2022/03/11 06:07:09;;;;;;;15.02;8.57;;;;;;;2.15;70.35;101987.47;10370874;28;20046;-65
2022/03/11 06:12:31;;;;;;;13.63;8.23;;;;;;;2.12;71.46;101997.78;10405884;28;20053;-65
2022/03/11 06:17:54;;;;;;;17.55;8.30;;;;;;;2.20;70.74;101999.41;10411390;28;20053;-65
2022/03/11 06:23:16;;;;;;;19.95;8.68;;;;;;;2.16;70.04;101994.31;10403132;28;20049;-66
2022/03/11 06:28:37;;;;;;;14.98;7.85;;;;;;;2.11;69.63;101996.94;10410603;28;20047;-65
2022/03/11 06:33:59;;;;;;;14.68;8.00;;;;;;;2.17;69.38;101996.03;10440415;28;20512;-64
2022/03/11 06:39:21;;;;;;;14.02;8.32;;;;;;;2.28;69.51;102001.88;10400327;28;20064;-65
2022/03/11 06:44:42;;;;;;;14.07;8.20;;;;;;;2.21;69.97;102002.81;10405589;28;20046;-64
2022/03/11 06:50:06;;;;;;;15.18;7.97;;;;;;;2.14;69.59;102004.59;10370117;28;20404;-64
2022/03/11 06:55:27;;;;;;;14.60;7.95;;;;;;;2.32;68.50;102006.13;10355537;28;20526;-65
2022/03/11 07:00:49;;;;;;;19.38;9.25;;;;;;;2.35;69.51;101993.22;10368002;28;20586;-65
2022/03/11 07:06:11;;;;;;;17.63;8.07;;;;;;;2.50;68.41;101982.72;10355438;28;20457;-64
2022/03/11 07:11:33;;;;;;;14.65;8.57;;;;;;;2.36;68.38;101977.78;10383144;28;20156;-64
2022/03/11 07:16:56;;;;;;;19.30;8.63;;;;;;;2.44;67.91;101972.53;10368180;28;20380;-65
2022/03/11 07:22:18;;;;;;;15.35;8.77;;;;;;;2.42;68.14;101979.41;10368003;28;20042;-64
2022/03/11 07:27:48;;;;;;;19.55;8.88;;;;;;;2.69;66.83;101972.19;10343539;28;20125;-65
2022/03/11 07:33:11;;;;;;;14.88;8.52;;;;;;;2.69;66.96;101976.47;10414115;28;20067;-64
2022/03/11 07:38:32;;;;;;;15.82;8.52;;;;;;;2.73;66.43;101972.97;10412914;28;20045;-65
2022/03/11 07:43:55;;;;;;;16.17;9.25;;;;;;;2.84;66.30;101972.78;10404221;28;20088;-65
2022/03/11 07:49:34;;;;;;;17.63;8.77;;;;;;;2.82;64.67;101962.53;10402631;28;20072;-64
2022/03/11 07:54:56;;;;;;;17.98;8.38;;;;;;;2.95;64.32;101975.22;10411654;28;20053;-64
2022/03/11 08:00:18;;;;;;;17.65;8.30;;;;;;;3.02;64.64;101962.22;10417452;28;20418;-65
2022/03/11 08:05:40;;;;;;;15.30;8.40;;;;;;;3.05;64.20;101966.44;10388965;28;20049;-66
2022/03/11 08:11:01;;;;;;;17.58;8.18;;;;;;;3.16;62.04;101955.13;10361200;28;20409;-65
2022/03/11 08:16:26;;;;;;;15.77;8.70;;;;;;;3.32;63.51;101951.41;10414083;28;20053;-65
2022/03/11 08:21:50;;;;;;;25.00;9.85;;;;;;;3.42;61.89;101958.09;10392454;28;20633;-65
2022/03/11 08:27:14;;;;;;;15.57;8.55;;;;;;;3.51;63.27;101952.75;10365313;28;20057;-65
2022/03/11 08:32:37;;;;;;;15.43;8.65;;;;;;;3.66;63.70;101955.06;10402811;28;20150;-63
2022/03/11 08:37:59;;;;;;;16.58;9.02;;;;;;;3.73;62.98;101937.75;10430323;28;20045;-63
2022/03/11 08:43:22;;;;;;;16.15;7.88;;;;;;;3.91;60.09;101933.09;10397539;28;20103;-63
2022/03/11 08:48:44;;;;;;;16.25;8.50;;;;;;;4.02;60.61;101920.84;10405875;28;20417;-64
2022/03/11 08:54:05;;;;;;;14.77;8.43;;;;;;;4.14;59.18;101912.84;10383244;28;20052;-64
2022/03/11 08:59:27;;;;;;;13.73;8.48;;;;;;;4.25;58.39;101914.31;10364603;28;20747;-64
2022/03/11 09:04:49;;;;;;;16.80;8.70;;;;;;;4.30;58.92;101916.78;10385459;28;20061;-63
2022/03/11 09:10:12;;;;;;;18.27;8.05;;;;;;;4.37;59.56;101914.03;10379732;28;20132;-65
2022/03/11 09:15:34;;;;;;;16.80;8.88;;;;;;;4.60;57.38;101895.47;10454220;28;20061;-63
2022/03/11 09:21:01;;;;;;;14.85;8.35;;;;;;;4.66;57.11;101895.34;10394581;28;20046;-63
2022/03/11 09:26:23;;;;;;;16.45;8.07;;;;;;;4.79;56.62;101888.09;10412025;28;20144;-63
2022/03/11 09:32:05;;;;;;;11.98;7.85;;;;;;;4.82;56.10;101882.84;10426598;28;20060;-63
2022/03/11 09:37:27;;;;;;;15.20;7.80;;;;;;;4.89;58.21;101879.22;10371265;28;20049;-63
2022/03/11 09:42:50;;;;;;;12.70;7.60;;;;;;;5.20;54.31;101879.28;10387544;28;20713;-62
2022/03/11 09:48:15;;;;;;;18.83;8.50;;;;;;;5.34;52.31;101872.03;10372537;28;20522;-65
2022/03/11 09:53:37;;;;;;;13.57;7.57;;;;;;;5.49;53.06;101880.25;10399268;28;20387;-64
2022/03/11 09:58:59;;;;;;;18.90;7.45;;;;;;;5.53;54.14;101868.06;10406894;28;20050;-64
2022/03/11 10:04:21;;;;;;;13.75;6.93;;;;;;;5.85;49.72;101866.28;10372183;28;20050;-64
2022/03/11 10:09:43;;;;;;;13.07;7.10;;;;;;;5.85;49.29;101848.19;10379912;28;20049;-64
2022/03/11 10:15:05;;;;;;;12.50;6.57;;;;;;;5.88;50.87;101836.03;10483575;28;20148;-65
2022/03/11 10:20:27;;;;;;;13.38;6.80;;;;;;;6.00;48.77;101830.50;10422955;28;20046;-64
2022/03/11 10:25:51;;;;;;;13.98;7.30;;;;;;;6.15;47.39;101823.97;10413080;28;20071;-65
2022/03/11 10:31:14;;;;;;;11.35;6.40;;;;;;;6.36;44.78;101818.16;10377875;28;20049;-64
2022/03/11 10:36:35;;;;;;;13.63;7.18;;;;;;;6.41;50.16;101805.88;10402765;28;20050;-64
2022/03/11 10:42:18;;;;;;;14.52;5.82;;;;;;;6.62;45.64;101789.66;10400498;28;20321;-64
2022/03/11 10:47:41;;;;;;;15.05;6.53;;;;;;;6.51;46.73;101796.94;10410986;28;20049;-64
2022/03/11 10:53:07;;;;;;;11.13;6.45;;;;;;;6.78;46.74;101789.97;10403184;28;20092;-64
2022/03/11 10:58:29;;;;;;;12.02;6.20;;;;;;;6.79;45.46;101788.19;10371949;28;20084;-64
2022/03/11 11:03:50;;;;;;;14.60;6.32;;;;;;;6.86;46.79;101798.31;10390420;28;20210;-64
2022/03/11 11:09:14;;;;;;;19.95;6.35;;;;;;;7.07;44.50;101800.16;10409779;28;20073;-64
2022/03/11 11:14:36;;;;;;;11.23;6.70;;;;;;;7.16;45.29;101792.06;10417573;28;20055;-64
2022/03/11 11:20:00;;;;;;;15.07;6.55;;;;;;;7.28;44.15;101781.25;10405968;28;20045;-65
2022/03/11 11:25:23;;;;;;;10.55;6.10;;;;;;;7.49;41.40;101772.69;10366700;28;20042;-64
2022/03/11 11:30:46;;;;;;;10.68;6.22;;;;;;;7.40;46.18;101762.69;10388321;28;20049;-64
2022/03/11 11:36:08;;;;;;;12.48;5.72;;;;;;;7.44;44.86;101750.44;10449138;28;20053;-64
2022/03/11 11:41:31;;;;;;;12.45;5.63;;;;;;;7.47;46.52;101748.56;10383394;28;20128;-64
2022/03/11 11:47:17;;;;;;;10.68;5.80;;;;;;;7.65;42.61;101733.16;10394686;28;20060;-64
2022/03/11 11:52:38;;;;;;;15.05;5.85;;;;;;;7.79;41.73;101730.88;10383702;28;20068;-63
2022/03/11 11:58:23;;;;;;;17.95;5.80;;;;;;;7.76;44.31;101730.16;10387368;28;20780;-64
2022/03/11 12:03:49;;;;;;;11.10;5.38;;;;;;;8.21;40.62;101723.16;10366898;28;20061;-64
2022/03/11 12:09:40;;;;;;;7.97;4.95;;;;;;;8.04;41.08;101707.38;10400796;28;20045;-64
2022/03/11 12:15:05;;;;;;;13.07;5.45;;;;;;;8.41;39.69;101708.44;10386807;28;20414;-64
2022/03/11 12:20:33;;;;;;;16.67;5.13;;;;;;;8.34;40.89;101698.38;10370398;28;20057;-63
2022/03/11 12:26:01;;;;;;;13.40;5.53;;;;;;;8.54;41.57;101688.84;10380527;28;20120;-64
2022/03/11 12:31:24;;;;;;;12.88;5.65;;;;;;;8.61;44.75;101672.91;10367935;28;20042;-64
2022/03/11 12:36:48;;;;;;;8.95;5.22;;;;;;;8.77;38.69;101666.16;10366047;28;20063;-64
2022/03/11 12:42:09;;;;;;;10.88;4.57;;;;;;;8.90;36.41;101649.09;10395510;28;20041;-63
2022/03/11 12:47:38;;;;;;;16.92;5.03;;;;;;;8.88;36.85;101648.31;10414521;28;20064;-65
2022/03/11 12:53:00;;;;;;;12.27;5.28;;;;;;;8.88;40.12;101637.91;10378347;28;20060;-64
2022/03/11 12:58:31;;;;;;;13.85;4.65;;;;;;;9.13;36.35;101617.72;10360059;28;20054;-64
2022/03/11 13:03:53;;;;;;;16.63;5.40;;;;;;;8.89;39.18;101603.19;10373004;28;20061;-65
2022/03/11 13:09:21;;;;;;;8.50;4.53;;;;;;;8.82;39.46;101608.75;10373436;28;20056;-65
2022/03/11 13:14:42;;;;;;;8.48;4.70;;;;;;;9.10;39.27;101603.97;10386510;28;20071;-64
2022/03/11 13:20:04;;;;;;;12.20;5.28;;;;;;;9.05;41.69;101606.78;10387423;28;20474;-64
2022/03/11 13:25:29;;;;;;;13.05;4.97;;;;;;;9.05;39.23;101604.19;10411844;28;20522;-66
2022/03/11 13:30:53;;;;;;;13.10;5.18;;;;;;;9.17;37.99;101610.59;10417414;28;20049;-64
2022/03/11 13:36:20;;;;;;;11.43;4.75;;;;;;;9.08;38.33;101611.88;10419052;28;20375;-64
2022/03/11 13:41:46;;;;;;;12.93;5.20;;;;;;;9.47;37.13;101598.75;10399606;28;20041;-64
2022/03/11 13:47:14;;;;;;;9.50;4.47;;;;;;;9.18;38.18;101592.31;10414813;28;20401;-64
2022/03/11 13:52:40;;;;;;;10.40;4.95;;;;;;;9.36;37.62;101591.44;10415922;28;20053;-64
2022/03/11 13:58:17;;;;;;;11.68;5.10;;;;;;;9.57;35.66;101588.66;10404712;28;20085;-64
2022/03/11 14:03:44;;;;;;;10.05;5.03;;;;;;;9.76;37.75;101592.06;10359151;28;20066;-67
2022/03/11 14:09:06;;;;;;;9.13;4.90;;;;;;;9.67;38.30;101594.28;10371885;28;20137;-67
2022/03/11 14:14:30;;;;;;;10.48;4.93;;;;;;;9.69;38.01;101574.22;10405510;28;20561;-65
2022/03/11 14:19:52;;;;;;;9.93;4.18;;;;;;;9.81;36.41;101586.63;10365273;28;20045;-65
2022/03/11 14:25:13;;;;;;;11.75;4.97;;;;;;;9.77;37.90;101580.75;10384845;28;20530;-66
2022/03/11 14:30:38;;;;;;;9.65;4.68;;;;;;;9.95;36.29;101578.97;10370065;28;20505;-64
2022/03/11 14:35:59;;;;;;;8.95;5.00;;;;;;;9.94;37.69;101572.09;10390979;28;20061;-65
2022/03/11 14:41:21;;;;;;;12.80;5.10;;;;;;;9.97;36.27;101564.13;10386332;28;20061;-64
2022/03/11 14:46:43;;;;;;;16.38;4.70;;;;;;;9.81;38.33;101552.78;10369323;28;20058;-66
2022/03/11 14:52:06;;;;;;;12.10;4.75;;;;;;;10.06;36.05;101538.50;10363672;28;20079;-65
2022/03/11 14:57:28;;;;;;;9.13;4.70;;;;;;;10.08;37.33;101549.69;10363905;28;20053;-63
2022/03/11 15:02:49;;;;;;;13.68;4.90;;;;;;;10.15;35.26;101542.38;10393407;28;20053;-64
2022/03/11 15:08:11;;;;;;;12.15;4.80;;;;;;;10.20;37.25;101561.22;10391447;28;20557;-64
2022/03/11 15:13:33;;;;;;;11.32;4.53;;;;;;;10.09;37.39;101546.16;10425586;28;20063;-64
2022/03/11 15:18:54;;;;;;;9.43;4.60;;;;;;;10.15;42.15;101553.63;10407380;28;20064;-65
2022/03/11 15:24:16;;;;;;;9.18;5.00;;;;;;;10.24;38.22;101541.91;10402954;28;20068;-65
2022/03/11 15:29:38;;;;;;;8.93;4.97;;;;;;;10.69;36.93;101549.00;10369804;28;20054;-65
2022/03/11 15:34:59;;;;;;;11.52;4.88;;;;;;;10.91;36.26;101536.50;10397268;28;20092;-64
2022/03/11 15:40:23;;;;;;;12.15;5.15;;;;;;;10.69;36.07;101524.69;10354298;28;20048;-65
2022/03/11 15:45:45;;;;;;;12.35;5.25;;;;;;;10.83;35.73;101535.22;10383415;28;20095;-64
2022/03/11 15:51:06;;;;;;;10.13;5.13;;;;;;;10.45;35.96;101532.97;10380740;28;20052;-64
2022/03/11 15:56:28;;;;;;;12.27;4.85;;;;;;;10.63;37.87;101520.63;10376389;28;20054;-64
2022/03/11 16:01:49;;;;;;;9.88;4.82;;;;;;;10.87;37.72;101519.31;10379801;28;20080;-65
2022/03/11 16:07:11;;;;;;;16.25;4.97;;;;;;;10.69;37.06;101525.53;10379511;28;20049;-66
2022/03/11 16:12:38;;;;;;;12.90;5.00;;;;;;;10.36;36.19;101525.63;10373648;28;20417;-64
2022/03/11 16:17:59;;;;;;;13.52;5.13;;;;;;;10.08;39.25;101525.38;10372228;28;20049;-65
2022/03/11 16:23:21;;;;;;;11.23;4.95;;;;;;;10.15;35.97;101529.38;10377409;28;20080;-64
2022/03/11 16:28:43;;;;;;;21.60;5.47;;;;;;;9.51;38.75;101537.84;10378508;28;20073;-64
2022/03/11 16:34:15;;;;;;;8.32;5.20;;;;;;;9.47;39.90;101534.53;10427011;28;20477;-64
2022/03/11 16:39:37;;;;;;;16.13;5.28;;;;;;;9.26;37.68;101532.97;10409931;28;20049;-64
2022/03/11 16:44:59;;;;;;;11.98;5.35;;;;;;;9.18;38.39;101529.88;10402179;28;20144;-64
2022/03/11 16:50:20;;;;;;;12.50;4.85;;;;;;;9.08;37.78;101544.25;10382447;28;20142;-64
2022/03/11 16:55:42;;;;;;;17.55;5.32;;;;;;;8.84;41.47;101540.19;10366276;28;20060;-64
2022/03/11 17:01:04;;;;;;;15.90;5.18;;;;;;;8.71;39.88;101539.06;10365328;28;20061;-65
2022/03/11 17:06:25;;;;;;;13.75;5.10;;;;;;;8.64;38.82;101547.22;10393574;28;20053;-65
2022/03/11 17:11:47;;;;;;;11.43;5.65;;;;;;;8.58;40.54;101551.84;10414946;28;20053;-65
2022/03/11 17:17:09;;;;;;;11.10;5.28;;;;;;;8.67;39.60;101558.31;10399546;28;20053;-65
2022/03/11 17:22:31;;;;;;;11.80;5.68;;;;;;;8.38;40.07;101555.31;10385368;28;20049;-65
2022/03/11 17:27:53;;;;;;;8.80;5.32;;;;;;;8.43;41.24;101557.72;10366797;28;20057;-65
2022/03/11 17:33:16;;;;;;;13.50;5.30;;;;;;;8.29;39.51;101560.91;10394114;28;20045;-65
2022/03/11 17:38:42;;;;;;;14.45;5.57;;;;;;;8.21;41.24;101559.56;10407812;28;20055;-65
2022/03/11 17:44:03;;;;;;;;;;;;;;;8.04;40.32;101574.97;10407631;28;20060;-65
2022/03/11 17:49:25;;;;;;;15.32;5.35;;;;;;;7.95;40.59;101575.38;10388451;28;19925;-65
2022/03/11 17:54:47;;;;;;;17.05;5.65;;;;;;;8.03;43.13;101578.47;10370809;28;20062;-65
2022/03/11 18:00:10;;;;;;;10.52;5.40;;;;;;;7.90;42.73;101577.31;10395344;28;20410;-65
2022/03/11 18:05:33;;;;;;;15.82;4.82;;;;;;;8.01;41.30;101577.69;10383660;28;20065;-64
2022/03/11 18:10:54;;;;;;;14.80;5.65;;;;;;;7.79;41.59;101563.94;10424618;28;20041;-64
2022/03/11 18:16:16;;;;;;;8.80;5.50;;;;;;;7.89;39.77;101581.66;10402002;28;20045;-65
2022/03/11 18:21:38;;;;;;;12.10;5.30;;;;;;;7.60;42.70;101591.53;10393785;28;20053;-65
2022/03/11 18:27:00;;;;;;;15.60;5.30;;;;;;;7.77;42.38;101592.56;10403033;28;20061;-65
2022/03/11 18:32:22;;;;;;;8.45;5.15;;;;;;;7.78;38.78;101583.00;10411478;28;20046;-65
2022/03/11 18:37:43;;;;;;;10.48;4.95;;;;;;;7.70;40.21;101585.09;10363376;28;20054;-65
2022/03/11 18:43:05;;;;;;;13.77;5.13;;;;;;;7.60;40.33;101580.31;10391326;28;20049;-66
2022/03/11 18:48:27;;;;;;;14.82;5.20;;;;;;;7.59;39.39;101586.41;10386679;28;20049;-65
2022/03/11 18:53:48;;;;;;;15.45;5.00;;;;;;;7.49;38.96;101585.94;10386967;28;20067;-64
2022/03/11 18:59:11;;;;;;;8.73;4.93;;;;;;;7.50;42.09;101579.84;10393058;28;20050;-65
2022/03/11 19:04:32;;;;;;;8.85;4.80;;;;;;;7.40;41.12;101581.13;10395784;28;20053;-65
2022/03/11 19:09:54;;;;;;;11.48;5.25;;;;;;;7.48;38.40;101579.06;10397071;28;20057;-65
2022/03/11 19:15:16;;;;;;;10.35;5.25;;;;;;;7.37;40.92;101586.44;10407113;28;20057;-65
2022/03/11 19:20:38;;;;;;;7.82;4.90;;;;;;;7.27;40.51;101572.16;10377653;28;20069;-65
2022/03/11 19:26:00;;;;;;;15.73;5.00;;;;;;;7.30;40.48;101561.63;10393469;28;20067;-64
2022/03/11 19:31:25;;;;;;;13.70;5.18;;;;;;;7.23;39.73;101575.75;10385967;28;20053;-63
2022/03/11 19:36:49;;;;;;;11.25;5.20;;;;;;;7.25;38.56;101581.72;10399542;28;20595;-62
2022/03/11 19:42:14;;;;;;;12.20;5.38;;;;;;;7.17;41.29;101588.94;10387383;28;20034;-63
2022/03/11 19:47:36;;;;;;;14.23;5.15;;;;;;;6.94;42.64;101583.81;10397258;28;20136;-62
2022/03/11 19:52:58;;;;;;;9.55;5.28;;;;;;;6.91;41.11;101591.69;10390373;28;20049;-63
2022/03/11 19:58:20;;;;;;;11.50;5.05;;;;;;;6.82;42.90;101584.25;10393856;28;20100;-63
2022/03/11 20:03:42;;;;;;;8.95;5.22;;;;;;;6.76;42.89;101587.06;10391940;28;20045;-63
2022/03/11 20:09:07;;;;;;;9.77;5.15;;;;;;;6.81;41.29;101585.16;10368151;28;20050;-63
2022/03/11 20:14:29;;;;;;;11.02;5.40;;;;;;;6.77;41.19;101588.75;10370439;28;20467;-63
2022/03/11 20:19:50;;;;;;;17.88;5.55;;;;;;;6.73;41.79;101594.94;10379242;28;20071;-63
2022/03/11 20:25:12;;;;;;;14.32;5.78;;;;;;;6.58;42.77;101601.59;10365723;28;20052;-63
2022/03/11 20:30:34;;;;;;;12.18;5.53;;;;;;;6.48;43.25;101595.06;10350217;28;20053;-63
2022/03/11 20:35:57;;;;;;;13.98;6.07;;;;;;;6.61;44.19;101602.34;10447608;28;20052;-63
2022/03/11 20:41:19;;;;;;;10.77;5.88;;;;;;;6.38;44.65;101598.88;10419780;28;20075;-63
2022/03/11 20:46:42;;;;;;;11.40;5.80;;;;;;;6.49;42.56;101594.16;10405754;28;20049;-63
2022/03/11 20:52:06;;;;;;;13.02;6.38;;;;;;;6.34;46.62;101602.47;10405441;28;20046;-62
2022/03/11 20:57:28;;;;;;;13.18;5.80;;;;;;;6.26;44.58;101594.13;10405588;28;20059;-63
2022/03/11 21:02:50;;;;;;;12.98;6.18;;;;;;;6.34;42.95;101592.09;10414867;28;20344;-63
2022/03/11 21:08:12;;;;;;;12.88;6.03;;;;;;;6.27;44.46;101590.63;10401225;28;20062;-63
2022/03/11 21:13:34;;;;;;;11.13;5.95;;;;;;;6.03;46.38;101601.81;10436366;28;20053;-64
2022/03/11 21:18:57;;;;;;;11.73;6.28;;;;;;;6.12;46.04;101583.38;10409033;28;20068;-63
2022/03/11 21:24:19;;;;;;;13.50;5.82;;;;;;;6.09;44.61;101596.44;10399581;28;20124;-63
2022/03/11 21:29:40;;;;;;;10.85;5.85;;;;;;;5.98;46.32;101598.53;10413707;28;20049;-63
2022/03/11 21:35:03;;;;;;;11.35;6.07;;;;;;;6.13;44.04;101592.84;10382563;28;20060;-63
2022/03/11 21:40:25;;;;;;;13.82;6.05;;;;;;;6.06;45.62;101588.78;10380124;28;20600;-63
2022/03/11 21:45:48;;;;;;;11.15;5.95;;;;;;;5.99;45.74;101595.03;10413184;28;20049;-63
2022/03/11 21:51:09;;;;;;;10.38;6.10;;;;;;;5.99;46.34;101595.03;10388005;28;20507;-63
2022/03/11 21:56:31;;;;;;;14.63;6.30;;;;;;;5.99;44.44;101606.25;10358749;28;20172;-63
2022/03/11 22:01:58;;;;;;;9.98;5.85;;;;;;;5.85;46.14;101592.06;10372396;28;20050;-63
2022/03/11 22:07:20;;;;;;;12.63;6.00;;;;;;;5.81;45.40;101606.03;10371630;28;20057;-63
2022/03/11 22:12:41;;;;;;;15.27;6.05;;;;;;;5.74;46.20;101607.06;10419995;28;20049;-63
2022/03/11 22:18:03;;;;;;;10.18;6.47;;;;;;;5.68;46.82;101605.53;10423472;28;20087;-63
2022/03/11 22:23:25;;;;;;;12.40;6.30;;;;;;;5.74;45.96;101594.13;10392110;28;20046;-63
2022/03/11 22:28:46;;;;;;;16.23;6.00;;;;;;;5.63;47.65;101601.41;10356163;28;20528;-63
2022/03/11 22:34:09;;;;;;;10.07;5.97;;;;;;;5.67;47.34;101608.19;10375477;28;20513;-65
2022/03/11 22:39:34;;;;;;;10.77;5.77;;;;;;;5.55;47.48;101611.13;10401450;28;20046;-63
2022/03/11 22:44:56;;;;;;;12.27;5.90;;;;;;;5.53;47.17;101609.50;10410368;28;20502;-63
2022/03/11 22:50:31;;;;;;;11.93;6.40;;;;;;;5.44;47.01;101600.28;10409448;28;20085;-63
2022/03/11 22:55:53;;;;;;;11.40;6.47;;;;;;;5.37;48.43;101598.81;10397509;28;20189;-63
2022/03/11 23:01:15;;;;;;;15.02;6.60;;;;;;;5.45;47.93;101599.41;10409874;28;20041;-63
2022/03/11 23:12:19;;;;;;;11.98;6.07;;;;;;;5.13;47.36;101615.03;10405150;28;20060;-63
2022/03/11 23:17:42;;;;;;;10.02;5.82;;;;;;;5.17;47.24;101611.47;10368356;28;20052;-63
2022/03/11 23:23:03;;;;;;;11.20;5.88;;;;;;;5.30;48.03;101611.97;10390550;28;20049;-63
2022/03/11 23:28:25;;;;;;;11.52;6.13;;;;;;;5.00;48.00;101603.38;10368901;28;20056;-63
2022/03/11 23:33:49;;;;;;;11.77;5.75;;;;;;;5.06;47.57;101602.34;10397938;28;20046;-63
2022/03/11 23:39:11;;;;;;;9.38;5.60;;;;;;;4.96;47.47;101595.78;10406582;28;20076;-63
2022/03/11 23:44:34;;;;;;;11.45;6.10;;;;;;;5.01;47.71;101599.91;10417573;28;20049;-62
2022/03/11 23:49:56;;;;;;;10.70;5.93;;;;;;;4.86;49.04;101595.19;10429785;28;20046;-63
2022/03/11 23:55:17;;;;;;;10.13;5.78;;;;;;;4.76;47.76;101598.94;10379250;28;20595;-63
